Time;durP1;ratioP1;P1;durP2;ratioP2;P2;SDS_P1;SDS_P2;PMS_P1;PMS_P2;Temp;Humidity;BMP_temperature;BMP_pressure;BME280_temperature;BME280_humidity;BME280_pressure;Samples;Min_cycle;Max_cycle;Signal;HPM_P1;HPM_P2
2022/01/20 00:02:59;;;;;;;18.63;2.40;;;;;;;;;;10409680;28;20755;-65
2022/01/20 00:29:01;;;;;;;15.02;2.67;;;;;;;;;;10403935;28;20259;-65
2022/01/20 00:39:13;;;;;;;18.80;2.45;;;;;;;;;;10386026;28;20204;-64
2022/01/20 00:44:14;;;;;;;15.75;2.33;;;;;;;;;;10406850;28;20203;-64
2022/01/20 00:49:15;;;;;;;25.13;2.75;;;;;;;;;;10409088;28;20219;-64
2022/01/20 00:54:16;;;;;;;13.60;2.10;;;;;;;;;;10409545;28;20198;-65
2022/01/20 00:59:17;;;;;;;25.02;2.67;;;;;;;;;;10393270;28;20197;-65
2022/01/20 01:04:18;;;;;;;13.27;2.15;;;;;;;;;;10401980;28;20290;-65
2022/01/20 01:09:20;;;;;;;17.52;2.33;;;;;;;;;;10407345;28;20191;-64
2022/01/20 01:14:22;;;;;;;26.85;2.30;;;;;;;;;;10383457;28;20207;-64
2022/01/20 01:24:44;;;;;;;16.67;1.83;;;;;;;;;;10406967;28;20272;-65
2022/01/20 01:35:08;;;;;;;14.68;2.70;;;;;;;;;;10406611;28;20981;-64
2022/01/20 01:40:11;;;;;;;15.02;2.35;;;;;;;;;;10407940;28;20200;-64
2022/01/20 01:45:18;;;;;;;20.33;2.15;;;;;;;;;;10388392;28;20211;-64
2022/01/20 01:50:20;;;;;;;17.05;2.38;;;;;;;;;;10402120;28;20251;-65
2022/01/20 01:55:22;;;;;;;14.80;1.90;;;;;;;;;;10375990;28;20190;-64
2022/01/20 02:00:24;;;;;;;11.32;2.13;;;;;;;;;;10393201;28;20193;-64
2022/01/20 02:05:34;;;;;;;11.38;2.08;;;;;;;;;;10390714;28;20215;-64
2022/01/20 02:21:21;;;;;;;19.90;1.65;;;;;;;;;;10393080;28;20194;-65
2022/01/20 02:26:23;;;;;;;10.82;1.73;;;;;;;;;;10400456;28;20191;-65
2022/01/20 02:31:25;;;;;;;11.25;1.70;;;;;;;;;;10407944;28;20227;-65
2022/01/20 02:36:27;;;;;;;19.60;1.70;;;;;;;;;;10393204;28;20306;-64
2022/01/20 02:46:55;;;;;;;9.10;1.08;;;;;;;;;;10408789;28;20211;-64
2022/01/20 02:51:58;;;;;;;17.92;2.55;;;;;;;;;;10394026;28;20224;-64
2022/01/20 02:56:59;;;;;;;7.43;2.30;;;;;;;;;;10424184;28;20226;-64
2022/01/20 03:02:04;;;;;;;16.63;2.65;;;;;;;;;;10397877;28;20272;-64
2022/01/20 03:07:06;;;;;;;21.88;1.88;;;;;;;;;;10425421;28;20251;-64
2022/01/20 03:12:07;;;;;;;14.20;1.80;;;;;;;;;;10412208;28;21110;-65
2022/01/20 03:17:08;;;;;;;15.65;1.65;;;;;;;;;;10405380;28;20195;-64
2022/01/20 03:22:11;;;;;;;11.13;2.08;;;;;;;;;;10406770;28;20214;-64
2022/01/20 03:27:12;;;;;;;15.52;1.83;;;;;;;;;;10393603;28;20193;-65
2022/01/20 03:32:13;;;;;;;13.63;1.98;;;;;;;;;;10400271;28;20222;-65
2022/01/20 03:37:14;;;;;;;12.05;1.60;;;;;;;;;;10389020;28;20794;-64
2022/01/20 03:42:35;;;;;;;19.80;2.30;;;;;;;;;;10387831;28;20218;-64
2022/01/20 03:47:37;;;;;;;15.32;2.10;;;;;;;;;;10384580;28;20695;-65
2022/01/20 03:52:38;;;;;;;9.43;1.38;;;;;;;;;;10397232;28;20711;-64
2022/01/20 03:57:39;;;;;;;16.75;2.10;;;;;;;;;;10421405;28;20968;-65
2022/01/20 04:02:56;;;;;;;8.43;1.60;;;;;;;;;;10416486;28;20753;-64
2022/01/20 04:08:15;;;;;;;10.77;1.92;;;;;;;;;;10428896;28;20337;-65
2022/01/20 04:13:17;;;;;;;11.30;1.90;;;;;;;;;;10422139;28;20271;-65
2022/01/20 04:18:23;;;;;;;16.27;1.88;;;;;;;;;;10424378;28;20615;-65
2022/01/20 04:23:24;;;;;;;9.35;1.13;;;;;;;;;;10430686;28;20206;-65
2022/01/20 04:28:25;;;;;;;14.07;1.92;;;;;;;;;;10398112;28;20200;-65
2022/01/20 04:33:26;;;;;;;15.48;1.60;;;;;;;;;;10437697;28;20221;-65
2022/01/20 04:38:27;;;;;;;10.57;1.42;;;;;;;;;;10434915;28;20186;-64
2022/01/20 04:43:29;;;;;;;13.10;1.83;;;;;;;;;;10440024;28;20681;-64
2022/01/20 04:59:10;;;;;;;4.63;1.25;;;;;;;;;;10388269;28;20341;-64
2022/01/20 05:04:11;;;;;;;4.72;0.57;;;;;;;;;;10378773;28;20233;-64
2022/01/20 05:09:33;;;;;;;6.90;0.70;;;;;;;;;;10381157;28;20265;-64
2022/01/20 05:14:34;;;;;;;8.45;1.35;;;;;;;;;;10379591;28;20199;-65
2022/01/20 05:19:35;;;;;;;6.05;0.77;;;;;;;;;;10376579;28;20294;-64
2022/01/20 05:24:36;;;;;;;2.92;0.60;;;;;;;;;;10384963;28;20210;-65
2022/01/20 05:29:39;;;;;;;9.20;0.95;;;;;;;;;;10404809;28;20246;-65
2022/01/20 05:34:42;;;;;;;3.47;0.82;;;;;;;;;;10395837;28;20214;-65
2022/01/20 05:39:44;;;;;;;4.55;1.17;;;;;;;;;;10400266;28;20191;-65
2022/01/20 05:44:50;;;;;;;8.25;1.33;;;;;;;;;;10408982;28;20210;-65
2022/01/20 05:49:52;;;;;;;9.50;0.90;;;;;;;;;;10405522;28;20340;-65
2022/01/20 05:54:54;;;;;;;5.88;1.23;;;;;;;;;;10397037;28;20195;-65
2022/01/20 05:59:55;;;;;;;8.52;1.20;;;;;;;;;;10389939;28;20188;-65
2022/01/20 06:05:00;;;;;;;4.63;1.00;;;;;;;;;;10393792;28;20629;-65
2022/01/20 06:10:03;;;;;;;10.30;1.90;;;;;;;;;;10392852;28;20250;-65
2022/01/20 06:15:05;;;;;;;10.18;0.70;;;;;;;;;;10414496;28;20199;-66
2022/01/20 06:20:06;;;;;;;5.57;0.70;;;;;;;;;;10390460;28;20628;-65
2022/01/20 06:25:08;;;;;;;4.78;0.68;;;;;;;;;;10423406;28;20215;-65
2022/01/20 06:30:09;;;;;;;6.65;0.80;;;;;;;;;;10404541;28;20180;-64
2022/01/20 06:35:11;;;;;;;2.47;0.73;;;;;;;;;;10418018;28;20215;-65
2022/01/20 06:40:12;;;;;;;6.25;0.85;;;;;;;;;;10415729;28;20191;-66
2022/01/20 06:45:16;;;;;;;6.28;0.90;;;;;;;;;;10422162;28;21093;-64
2022/01/20 06:50:20;;;;;;;2.55;0.75;;;;;;;;;;10420589;28;21388;-64
2022/01/20 06:55:23;;;;;;;8.20;1.00;;;;;;;;;;10398425;28;20191;-64
2022/01/20 07:00:25;;;;;;;6.32;0.90;;;;;;;;;;10416458;28;20190;-65
2022/01/20 07:05:26;;;;;;;7.45;0.75;;;;;;;;;;10414607;28;20214;-65
2022/01/20 07:10:27;;;;;;;6.10;1.30;;;;;;;;;;10411379;28;20198;-64
2022/01/20 07:15:29;;;;;;;10.48;1.63;;;;;;;;;;10428214;28;20701;-63
2022/01/20 07:20:32;;;;;;;5.03;1.27;;;;;;;;;;10436062;28;20196;-64
2022/01/20 07:26:02;;;;;;;11.02;0.70;;;;;;;;;;10404798;28;20704;-64
2022/01/20 07:31:03;;;;;;;9.55;1.27;;;;;;;;;;10407012;28;20582;-65
2022/01/20 07:36:05;;;;;;;9.27;1.05;;;;;;;;;;10399225;28;20202;-65
2022/01/20 07:41:06;;;;;;;7.32;1.27;;;;;;;;;;10397760;28;20683;-65
2022/01/20 07:46:08;;;;;;;6.43;0.90;;;;;;;;;;10407156;28;20273;-64
2022/01/20 07:51:21;;;;;;;7.70;0.98;;;;;;;;;;10409342;28;20587;-63
2022/01/20 07:56:22;;;;;;;13.32;1.10;;;;;;;;;;10413414;28;20191;-64
2022/01/20 08:01:25;;;;;;;6.20;0.90;;;;;;;;;;10415998;28;20219;-65
2022/01/20 08:06:34;;;;;;;5.13;0.90;;;;;;;;;;10395135;28;20206;-65
2022/01/20 08:11:56;;;;;;;7.90;1.48;;;;;;;;;;10392329;28;20196;-64
2022/01/20 08:17:20;;;;;;;14.45;1.10;;;;;;;;;;10391537;28;20207;-65
2022/01/20 08:22:24;;;;;;;7.93;1.10;;;;;;;;;;10390632;28;21000;-64
2022/01/20 08:27:25;;;;;;;9.73;1.50;;;;;;;;;;10408882;28;20199;-64
2022/01/20 08:32:27;;;;;;;7.82;1.20;;;;;;;;;;10389771;28;20231;-64
2022/01/20 08:37:40;;;;;;;4.47;0.90;;;;;;;;;;10390889;28;20195;-64
2022/01/20 08:42:42;;;;;;;10.23;1.20;;;;;;;;;;10388159;28;20697;-64
2022/01/20 08:47:43;;;;;;;8.45;1.40;;;;;;;;;;10402797;28;20195;-64
2022/01/20 08:52:45;;;;;;;11.23;1.33;;;;;;;;;;10388731;28;23981;-64
2022/01/20 08:57:47;;;;;;;8.63;1.02;;;;;;;;;;10407635;28;20937;-63
2022/01/20 09:02:48;;;;;;;11.05;1.35;;;;;;;;;;10410534;28;20215;-65
2022/01/20 09:07:49;;;;;;;6.30;1.08;;;;;;;;;;10406408;28;20188;-63
2022/01/20 09:17:53;;;;;;;11.20;1.48;;;;;;;;;;10408001;28;20227;-65
2022/01/20 09:22:55;;;;;;;10.60;1.13;;;;;;;;;;10408285;28;20199;-65
2022/01/20 09:27:57;;;;;;;6.60;1.70;;;;;;;;;;10406971;28;20218;-64
2022/01/20 09:33:13;;;;;;;5.43;1.20;;;;;;;;;;10407755;28;20441;-64
2022/01/20 09:38:14;;;;;;;5.22;1.50;;;;;;;;;;10412075;28;20985;-64
2022/01/20 09:43:16;;;;;;;11.27;1.67;;;;;;;;;;10401875;28;20211;-64
2022/01/20 09:48:19;;;;;;;12.55;1.63;;;;;;;;;;10394527;28;20745;-63
2022/01/20 09:53:38;;;;;;;9.57;1.17;;;;;;;;;;10410638;28;20217;-64
2022/01/20 09:58:59;;;;;;;5.47;1.05;;;;;;;;;;10357447;28;20217;-63
2022/01/20 10:04:01;;;;;;;12.60;1.55;;;;;;;;;;10400920;28;20257;-64
2022/01/20 10:09:03;;;;;;;11.00;1.23;;;;;;;;;;10411237;28;20829;-64
2022/01/20 10:14:21;;;;;;;5.78;0.68;;;;;;;;;;10396292;28;20190;-64
2022/01/20 10:19:23;;;;;;;11.52;1.23;;;;;;;;;;10408975;28;20226;-63
2022/01/20 10:24:26;;;;;;;7.35;0.90;;;;;;;;;;10399169;28;20778;-64
2022/01/20 10:29:43;;;;;;;15.20;1.88;;;;;;;;;;10413307;28;20198;-64
2022/01/20 10:34:44;;;;;;;5.97;1.67;;;;;;;;;;10414329;28;20701;-63
2022/01/20 10:40:03;;;;;;;13.82;1.75;;;;;;;;;;10413412;28;20286;-65
2022/01/20 10:45:04;;;;;;;8.82;1.48;;;;;;;;;;10416604;28;20702;-64
2022/01/20 10:50:10;;;;;;;11.82;1.70;;;;;;;;;;10430073;28;20698;-64
2022/01/20 10:55:19;;;;;;;9.35;1.40;;;;;;;;;;10461225;28;20666;-64
2022/01/20 11:00:21;;;;;;;12.50;1.42;;;;;;;;;;10438180;28;20243;-64
2022/01/20 11:05:24;;;;;;;8.05;1.48;;;;;;;;;;10450920;28;20206;-64
2022/01/20 11:10:26;;;;;;;11.40;1.75;;;;;;;;;;10420724;28;20298;-64
2022/01/20 11:15:46;;;;;;;6.45;1.23;;;;;;;;;;10451584;28;20270;-64
2022/01/20 11:20:50;;;;;;;9.63;1.85;;;;;;;;;;10435569;28;20201;-63
2022/01/20 11:26:02;;;;;;;11.30;0.82;;;;;;;;;;10451736;28;20306;-65
2022/01/20 11:31:18;;;;;;;7.82;1.10;;;;;;;;;;10440040;28;20690;-66
2022/01/20 11:36:31;;;;;;;7.35;1.42;;;;;;;;;;10441814;28;20193;-64
2022/01/20 11:41:39;;;;;;;7.45;1.17;;;;;;;;;;10455351;28;20198;-64
2022/01/20 11:46:43;;;;;;;12.98;2.05;;;;;;;;;;10453268;28;20247;-64
2022/01/20 11:52:00;;;;;;;11.13;1.13;;;;;;;;;;10452474;28;20283;-65
2022/01/20 11:57:09;;;;;;;9.75;1.20;;;;;;;;;;10454445;28;20215;-65
2022/01/20 12:02:11;;;;;;;13.73;1.13;;;;;;;;;;10452867;28;20226;-64
2022/01/20 12:07:23;;;;;;;5.22;0.82;;;;;;;;;;10452092;28;20194;-64
2022/01/20 12:12:26;;;;;;;5.95;0.70;;;;;;;;;;10449956;28;20205;-65
2022/01/20 12:17:27;;;;;;;8.20;0.95;;;;;;;;;;10450013;28;20194;-64
2022/01/20 12:22:28;;;;;;;10.43;1.30;;;;;;;;;;10452415;28;20210;-65
2022/01/20 12:27:29;;;;;;;8.35;0.73;;;;;;;;;;10448984;28;20239;-64
2022/01/20 12:32:30;;;;;;;5.85;1.92;;;;;;;;;;10448836;28;20774;-64
2022/01/20 12:37:32;;;;;;;10.15;1.33;;;;;;;;;;10443037;28;20682;-64
2022/01/20 12:42:34;;;;;;;4.15;0.80;;;;;;;;;;10451553;28;20210;-65
2022/01/20 12:47:37;;;;;;;8.50;1.25;;;;;;;;;;10452372;28;20866;-65
2022/01/20 12:52:45;;;;;;;8.05;1.23;;;;;;;;;;10452971;28;20191;-65
2022/01/20 12:57:46;;;;;;;9.98;1.00;;;;;;;;;;10451825;28;20216;-64
2022/01/20 13:02:50;;;;;;;7.13;0.90;;;;;;;;;;10449432;28;20222;-64
2022/01/20 13:07:52;;;;;;;3.75;0.60;;;;;;;;;;10447404;28;20201;-64
2022/01/20 13:12:53;;;;;;;6.13;1.17;;;;;;;;;;10448759;28;20614;-64
2022/01/20 13:18:05;;;;;;;4.32;1.00;;;;;;;;;;10451498;28;20252;-64
2022/01/20 13:23:54;;;;;;;10.55;1.38;;;;;;;;;;10450765;28;20561;-64
2022/01/20 13:28:30;;;;;;;6.10;0.93;;;;;;;;;;10452738;28;20194;-65
2022/01/20 13:33:32;;;;;;;8.10;1.13;;;;;;;;;;10447149;28;20211;-64
2022/01/20 13:38:37;;;;;;;9.73;1.10;;;;;;;;;;10450333;28;20233;-64
2022/01/20 13:49:07;;;;;;;4.28;0.75;;;;;;;;;;10456369;28;20252;-64
2022/01/20 13:54:08;;;;;;;7.57;1.15;;;;;;;;;;10455111;28;21275;-64
2022/01/20 13:59:10;;;;;;;6.55;0.82;;;;;;;;;;10450974;28;20309;-64
2022/01/20 14:04:11;;;;;;;3.78;1.35;;;;;;;;;;10438925;28;20244;-64
2022/01/20 14:09:12;;;;;;;5.35;0.70;;;;;;;;;;10458065;28;20634;-64
2022/01/20 14:14:14;;;;;;;7.32;0.68;;;;;;;;;;10452463;28;20283;-64
2022/01/20 14:19:21;;;;;;;4.85;0.98;;;;;;;;;;10450151;28;20190;-64
2022/01/20 14:24:22;;;;;;;4.38;0.73;;;;;;;;;;10451864;28;20240;-65
2022/01/20 14:29:25;;;;;;;5.25;0.65;;;;;;;;;;10450772;28;20299;-65
2022/01/20 14:34:26;;;;;;;6.32;0.73;;;;;;;;;;10454232;28;20305;-64
2022/01/20 14:39:27;;;;;;;3.90;0.73;;;;;;;;;;10450809;28;20194;-65
2022/01/20 14:44:28;;;;;;;4.72;0.68;;;;;;;;;;10448007;28;20267;-65
2022/01/20 14:49:29;;;;;;;3.55;0.63;;;;;;;;;;10451539;28;20311;-64
2022/01/20 14:54:30;;;;;;;4.40;0.60;;;;;;;;;;10444740;28;20191;-64
2022/01/20 14:59:33;;;;;;;5.32;1.30;;;;;;;;;;10449579;28;20700;-64
2022/01/20 15:04:34;;;;;;;3.47;0.60;;;;;;;;;;10458160;28;20223;-64
2022/01/20 15:09:35;;;;;;;2.47;0.40;;;;;;;;;;10448473;28;20210;-63
2022/01/20 15:14:36;;;;;;;2.63;0.60;;;;;;;;;;10450752;28;20193;-65
2022/01/20 15:19:37;;;;;;;4.28;0.50;;;;;;;;;;10453498;28;21046;-65
2022/01/20 15:24:38;;;;;;;10.45;0.88;;;;;;;;;;10453751;28;20210;-64
2022/01/20 15:29:39;;;;;;;1.33;0.40;;;;;;;;;;10453623;28;20198;-65
2022/01/20 15:34:40;;;;;;;4.70;0.75;;;;;;;;;;10454415;28;20215;-65
2022/01/20 15:39:41;;;;;;;3.83;0.50;;;;;;;;;;10446737;28;20209;-64
2022/01/20 15:44:43;;;;;;;7.45;0.80;;;;;;;;;;10449611;28;20211;-64
2022/01/20 15:49:44;;;;;;;3.90;0.63;;;;;;;;;;10445756;28;20268;-64
2022/01/20 15:54:45;;;;;;;2.15;0.80;;;;;;;;;;10443505;28;21502;-62
2022/01/20 15:59:46;;;;;;;7.25;1.15;;;;;;;;;;10450101;28;20278;-65
2022/01/20 16:04:47;;;;;;;7.47;1.25;;;;;;;;;;10445798;28;20229;-64
2022/01/20 16:09:48;;;;;;;6.80;1.10;;;;;;;;;;10448047;28;20213;-66
2022/01/20 16:14:49;;;;;;;7.22;1.05;;;;;;;;;;10445998;28;20195;-65
2022/01/20 16:19:50;;;;;;;7.70;1.05;;;;;;;;;;10448059;28;20198;-66
2022/01/20 16:24:51;;;;;;;6.28;1.85;;;;;;;;;;10430982;28;20233;-66
2022/01/20 16:29:53;;;;;;;6.00;1.83;;;;;;;;;;10450444;28;20197;-66
2022/01/20 16:34:54;;;;;;;3.40;1.23;;;;;;;;;;10450026;28;20206;-65
2022/01/20 16:39:56;;;;;;;9.47;1.80;;;;;;;;;;10446203;28;20210;-66
2022/01/20 16:44:57;;;;;;;4.25;1.00;;;;;;;;;;10447539;28;20301;-66
2022/01/20 16:49:58;;;;;;;4.72;1.05;;;;;;;;;;10446330;28;20807;-65
2022/01/20 16:54:59;;;;;;;5.15;1.50;;;;;;;;;;10451106;28;20198;-66
2022/01/20 17:00:00;;;;;;;5.53;0.82;;;;;;;;;;10444829;28;20253;-65
2022/01/20 17:05:01;;;;;;;6.13;1.05;;;;;;;;;;10450096;28;20217;-66
2022/01/20 17:10:02;;;;;;;5.82;1.17;;;;;;;;;;10451376;28;21290;-66
2022/01/20 17:15:03;;;;;;;4.70;0.90;;;;;;;;;;10451485;28;20206;-65
2022/01/20 17:20:05;;;;;;;6.20;0.90;;;;;;;;;;10448926;28;20202;-66
2022/01/20 17:25:06;;;;;;;5.63;0.85;;;;;;;;;;10459073;28;20242;-66
2022/01/20 17:30:08;;;;;;;3.13;0.90;;;;;;;;;;10450414;28;20198;-65
2022/01/20 17:35:10;;;;;;;5.15;0.98;;;;;;;;;;10451370;28;20300;-65
2022/01/20 17:40:12;;;;;;;7.93;1.10;;;;;;;;;;10450020;28;20193;-65
2022/01/20 17:45:13;;;;;;;6.95;1.35;;;;;;;;;;10455505;28;20214;-66
2022/01/20 17:50:15;;;;;;;4.07;1.38;;;;;;;;;;10454139;28;20222;-64
2022/01/20 17:55:16;;;;;;;8.93;1.23;;;;;;;;;;10455778;28;20700;-65
2022/01/20 18:00:19;;;;;;;2.08;0.73;;;;;;;;;;10453875;28;20194;-65
2022/01/20 18:05:20;;;;;;;3.90;1.48;;;;;;;;;;10445053;28;20202;-65
2022/01/20 18:10:21;;;;;;;1.38;1.20;;;;;;;;;;10450770;28;20201;-64
2022/01/20 18:15:22;;;;;;;11.30;4.90;;;;;;;;;;10451675;28;20194;-65
2022/01/20 18:20:23;;;;;;;4.55;0.82;;;;;;;;;;10451719;28;20202;-64
2022/01/20 18:25:24;;;;;;;5.43;0.70;;;;;;;;;;10452463;28;20210;-65
2022/01/20 18:30:25;;;;;;;5.57;0.73;;;;;;;;;;10451054;28;20194;-65
2022/01/20 18:35:26;;;;;;;3.28;1.17;;;;;;;;;;10455767;28;20261;-64
2022/01/20 18:40:27;;;;;;;2.60;1.10;;;;;;;;;;10451086;28;20217;-64
2022/01/20 18:45:28;;;;;;;3.20;0.60;;;;;;;;;;10451255;28;20213;-65
2022/01/20 18:50:30;;;;;;;5.10;0.68;;;;;;;;;;10450788;28;20210;-66
2022/01/20 18:55:31;;;;;;;6.70;0.50;;;;;;;;;;10451323;28;20407;-65
2022/01/20 19:00:32;;;;;;;6.10;0.70;;;;;;;;;;10450872;28;20218;-64
2022/01/20 19:05:33;;;;;;;2.90;0.70;;;;;;;;;;10452427;28;20222;-65
2022/01/20 19:10:34;;;;;;;4.47;0.55;;;;;;;;;;10453914;28;20190;-64
2022/01/20 19:15:35;;;;;;;5.68;1.15;;;;;;;;;;10445173;28;20230;-64
2022/01/20 19:20:36;;;;;;;5.10;1.15;;;;;;;;;;10449862;28;20549;-64
2022/01/20 19:25:37;;;;;;;4.00;1.30;;;;;;;;;;10449609;28;20211;-65
2022/01/20 19:30:38;;;;;;;4.30;1.38;;;;;;;;;;10450197;28;20218;-64
2022/01/20 19:35:40;;;;;;;7.57;1.48;;;;;;;;;;10453898;28;20198;-65
2022/01/20 19:40:41;;;;;;;6.68;1.27;;;;;;;;;;10451310;28;20225;-65
2022/01/20 19:45:42;;;;;;;5.28;1.55;;;;;;;;;;10454059;28;20573;-64
2022/01/20 19:50:43;;;;;;;2.97;1.25;;;;;;;;;;10451999;28;20351;-65
2022/01/20 19:55:44;;;;;;;4.60;0.90;;;;;;;;;;10455792;28;20238;-64
2022/01/20 20:00:48;;;;;;;4.88;1.45;;;;;;;;;;10454069;28;20328;-65
2022/01/20 20:05:50;;;;;;;4.63;1.02;;;;;;;;;;10434014;28;20210;-64
2022/01/20 20:10:51;;;;;;;3.53;0.75;;;;;;;;;;10452211;28;20228;-63
2022/01/20 20:15:52;;;;;;;4.15;0.68;;;;;;;;;;10450263;28;20221;-64
2022/01/20 20:20:53;;;;;;;6.40;0.88;;;;;;;;;;10445612;28;20570;-64
2022/01/20 20:25:54;;;;;;;6.75;1.05;;;;;;;;;;10423408;28;20210;-64
2022/01/20 20:30:55;;;;;;;5.30;1.40;;;;;;;;;;10445845;28;20769;-63
2022/01/20 20:35:56;;;;;;;5.43;0.90;;;;;;;;;;10449817;28;20222;-64
2022/01/20 20:40:58;;;;;;;5.07;0.85;;;;;;;;;;10449670;28;20194;-64
2022/01/20 20:45:59;;;;;;;6.55;1.50;;;;;;;;;;10448062;28;20239;-64
2022/01/20 20:51:00;;;;;;;1.85;0.70;;;;;;;;;;10449035;28;20257;-63
2022/01/20 20:56:01;;;;;;;1.58;0.60;;;;;;;;;;10450983;28;20194;-64
2022/01/20 21:01:02;;;;;;;1.55;0.70;;;;;;;;;;10460119;28;20221;-63
2022/01/20 21:06:13;;;;;;;2.15;0.60;;;;;;;;;;10459700;28;20210;-63
2022/01/20 21:11:15;;;;;;;1.83;0.50;;;;;;;;;;10456267;28;20309;-63
2022/01/20 21:16:17;;;;;;;4.67;0.77;;;;;;;;;;10455713;28;20195;-61
2022/01/20 21:21:19;;;;;;;3.40;0.57;;;;;;;;;;10460054;28;20207;-63
2022/01/20 21:26:20;;;;;;;1.58;0.60;;;;;;;;;;10461428;28;20252;-63
2022/01/20 21:31:22;;;;;;;1.15;0.70;;;;;;;;;;10457634;28;20217;-63
2022/01/20 21:36:23;;;;;;;1.88;0.88;;;;;;;;;;10461616;28;20222;-63
2022/01/20 21:41:29;;;;;;;8.83;1.00;;;;;;;;;;10456871;28;20576;-61
2022/01/20 21:46:30;;;;;;;2.92;0.55;;;;;;;;;;10448000;28;20217;-62
2022/01/20 21:51:32;;;;;;;4.43;0.70;;;;;;;;;;10445716;28;20293;-63
2022/01/20 21:56:35;;;;;;;5.82;0.80;;;;;;;;;;10457175;28;20260;-63
2022/01/20 22:01:36;;;;;;;1.33;0.57;;;;;;;;;;10455712;28;20214;-62
2022/01/20 22:06:37;;;;;;;6.13;0.57;;;;;;;;;;10450543;28;20305;-62
2022/01/20 22:11:38;;;;;;;2.73;0.63;;;;;;;;;;10446136;28;20227;-63
2022/01/20 22:16:39;;;;;;;8.73;0.67;;;;;;;;;;10454651;28;20256;-63
2022/01/20 22:21:40;;;;;;;3.53;0.93;;;;;;;;;;10455514;28;20209;-62
2022/01/20 22:26:41;;;;;;;3.33;0.50;;;;;;;;;;10451589;28;20237;-62
2022/01/20 22:31:42;;;;;;;4.00;0.90;;;;;;;;;;10456935;28;20222;-62
2022/01/20 22:36:43;;;;;;;3.17;0.97;;;;;;;;;;10457302;28;20678;-62
2022/01/20 22:41:45;;;;;;;6.73;0.90;;;;;;;;;;10452687;28;20214;-62
2022/01/20 22:46:46;;;;;;;3.90;0.60;;;;;;;;;;10450836;28;20305;-62
2022/01/20 22:51:47;;;;;;;1.93;0.60;;;;;;;;;;10454960;28;20600;-62
2022/01/20 22:56:48;;;;;;;1.67;0.60;;;;;;;;;;10452555;28;20206;-62
2022/01/20 23:01:49;;;;;;;2.30;0.53;;;;;;;;;;10451952;28;20209;-63
2022/01/20 23:06:50;;;;;;;3.50;0.30;;;;;;;;;;10450514;28;20727;-62
2022/01/20 23:11:51;;;;;;;2.70;0.53;;;;;;;;;;10451185;28;20190;-62
2022/01/20 23:17:02;;;;;;;4.50;0.40;;;;;;;;;;10445886;28;20194;-62
2022/01/20 23:22:05;;;;;;;6.07;0.97;;;;;;;;;;10445785;28;20186;-63
2022/01/20 23:27:06;;;;;;;1.30;0.40;;;;;;;;;;10451918;28;20191;-62
2022/01/20 23:32:07;;;;;;;2.00;0.33;;;;;;;;;;10454546;28;20223;-63
2022/01/20 23:37:08;;;;;;;0.40;0.40;;;;;;;;;;10454791;28;20622;-62
2022/01/20 23:42:18;;;;;;;0.77;0.30;;;;;;;;;;10455130;28;20197;-62
2022/01/20 23:52:39;;;;;;;2.80;0.40;;;;;;;;;;10450971;28;21179;-62
2022/01/20 23:57:41;;;;;;;2.70;0.40;;;;;;;;;;10453832;28;20194;-62
